sensor_id;sensor_type;location;lat;lon;timestamp;pressure;altitude;pressure_sealevel;temperature;humidity
12759;BME280;20944;47.048;15.390;2022-09-09T00:00:32;97411.06;;;16.63;95.70
12759;BME280;20944;47.048;15.390;2022-09-09T00:03:11;97410.66;;;16.55;96.61
12759;BME280;20944;47.048;15.390;2022-09-09T00:05:48;97411.94;;;16.48;97.55
12759;BME280;20944;47.048;15.390;2022-09-09T00:08:21;97409.78;;;16.54;97.73
12759;BME280;20944;47.048;15.390;2022-09-09T00:10:56;97413.53;;;16.50;98.83
12759;BME280;20944;47.048;15.390;2022-09-09T00:13:30;97411.84;;;16.49;99.28
12759;BME280;20944;47.048;15.390;2022-09-09T00:16:04;97422.50;;;16.63;99.06
12759;BME280;20944;47.048;15.390;2022-09-09T00:18:45;97425.81;;;16.51;99.37
12759;BME280;20944;47.048;15.390;2022-09-09T00:21:16;97409.94;;;16.35;98.27
12759;BME280;20944;47.048;15.390;2022-09-09T00:23:48;97396.91;;;15.99;99.52
12759;BME280;20944;47.048;15.390;2022-09-09T00:26:24;97428.31;;;16.05;100.00
12759;BME280;20944;47.048;15.390;2022-09-09T00:29:05;97418.69;;;16.04;100.00
12759;BME280;20944;47.048;15.390;2022-09-09T00:31:37;97426.50;;;16.06;100.00
12759;BME280;20944;47.048;15.390;2022-09-09T00:34:12;97426.44;;;16.07;100.00
12759;BME280;20944;47.048;15.390;2022-09-09T00:36:42;97434.22;;;16.10;100.00
12759;BME280;20944;47.048;15.390;2022-09-09T00:39:18;97426.28;;;16.10;100.00
12759;BME280;20944;47.048;15.390;2022-09-09T00:41:59;97423.69;;;16.09;100.00
12759;BME280;20944;47.048;15.390;2022-09-09T00:44:31;97418.69;;;16.04;100.00
12759;BME280;20944;47.048;15.390;2022-09-09T00:47:09;97414.91;;;16.08;100.00
12759;BME280;20944;47.048;15.390;2022-09-09T00:49:48;97424.72;;;16.06;100.00
12759;BME280;20944;47.048;15.390;2022-09-09T00:52:35;97422.69;;;16.11;100.00
12759;BME280;20944;47.048;15.390;2022-09-09T00:55:09;97427.97;;;16.11;100.00
12759;BME280;20944;47.048;15.390;2022-09-09T00:57:40;97426.28;;;16.10;100.00
12759;BME280;20944;47.048;15.390;2022-09-09T01:00:22;97414.16;;;16.06;100.00
12759;BME280;20944;47.048;15.390;2022-09-09T01:03:12;97413.38;;;16.04;100.00
12759;BME280;20944;47.048;15.390;2022-09-09T01:05:46;97402.72;;;16.06;100.00
12759;BME280;20944;47.048;15.390;2022-09-09T01:08:29;97414.56;;;15.99;100.00
12759;BME280;20944;47.048;15.390;2022-09-09T01:11:03;97419.78;;;15.83;100.00
12759;BME280;20944;47.048;15.390;2022-09-09T01:13:34;97424.47;;;15.78;100.00
12759;BME280;20944;47.048;15.390;2022-09-09T01:16:04;97424.72;;;15.73;100.00
12759;BME280;20944;47.048;15.390;2022-09-09T01:18:39;97427.81;;;15.64;100.00
12759;BME280;20944;47.048;15.390;2022-09-09T01:21:18;97430.31;;;15.67;100.00
12759;BME280;20944;47.048;15.390;2022-09-09T01:24:06;97408.47;;;15.63;100.00
12759;BME280;20944;47.048;15.390;2022-09-09T01:26:42;97412.66;;;15.68;100.00
12759;BME280;20944;47.048;15.390;2022-09-09T01:29:13;97398.19;;;15.57;100.00
12759;BME280;20944;47.048;15.390;2022-09-09T01:31:51;97436.97;;;15.74;100.00
12759;BME280;20944;47.048;15.390;2022-09-09T01:34:22;97421.03;;;15.58;100.00
12759;BME280;20944;47.048;15.390;2022-09-09T01:36:57;97431.84;;;15.71;100.00
12759;BME280;20944;47.048;15.390;2022-09-09T01:39:27;97412.19;;;15.59;100.00
12759;BME280;20944;47.048;15.390;2022-09-09T01:41:57;97441.41;;;15.74;100.00
12759;BME280;20944;47.048;15.390;2022-09-09T01:44:26;97435.91;;;15.78;100.00
12759;BME280;20944;47.048;15.390;2022-09-09T01:46:56;97405.16;;;15.58;100.00
12759;BME280;20944;47.048;15.390;2022-09-09T01:49:24;97438.06;;;15.70;100.00
12759;BME280;20944;47.048;15.390;2022-09-09T01:51:55;97433.63;;;15.71;100.00
12759;BME280;20944;47.048;15.390;2022-09-09T01:54:26;97367.06;;;15.29;100.00
12759;BME280;20944;47.048;15.390;2022-09-09T01:57:06;97427.25;;;15.57;100.00
12759;BME280;20944;47.048;15.390;2022-09-09T01:59:50;97401.00;;;15.37;100.00
12759;BME280;20944;47.048;15.390;2022-09-09T02:02:27;97429.19;;;15.54;100.00
12759;BME280;20944;47.048;15.390;2022-09-09T02:05:03;97428.25;;;15.55;100.00
12759;BME280;20944;47.048;15.390;2022-09-09T02:07:38;97413.41;;;15.52;100.00
12759;BME280;20944;47.048;15.390;2022-09-09T02:10:11;97427.91;;;15.62;100.00
12759;BME280;20944;47.048;15.390;2022-09-09T02:12:45;97432.09;;;15.67;100.00
12759;BME280;20944;47.048;15.390;2022-09-09T02:15:19;97427.44;;;15.72;100.00
12759;BME280;20944;47.048;15.390;2022-09-09T02:17:51;97436.28;;;15.71;100.00
12759;BME280;20944;47.048;15.390;2022-09-09T02:20:21;97429.69;;;15.79;100.00
12759;BME280;20944;47.048;15.390;2022-09-09T02:22:52;97433.31;;;15.77;100.00
12759;BME280;20944;47.048;15.390;2022-09-09T02:25:23;97433.22;;;15.61;100.00
12759;BME280;20944;47.048;15.390;2022-09-09T02:27:55;97423.28;;;15.31;100.00
12759;BME280;20944;47.048;15.390;2022-09-09T02:30:26;97438.28;;;15.31;100.00
12759;BME280;20944;47.048;15.390;2022-09-09T02:32:58;97436.09;;;15.22;100.00
12759;BME280;20944;47.048;15.390;2022-09-09T02:35:29;97427.53;;;15.17;100.00
12759;BME280;20944;47.048;15.390;2022-09-09T02:38:02;97442.06;;;15.25;100.00
12759;BME280;20944;47.048;15.390;2022-09-09T02:40:32;97438.38;;;15.47;100.00
12759;BME280;20944;47.048;15.390;2022-09-09T02:43:01;97443.16;;;15.56;100.00
12759;BME280;20944;47.048;15.390;2022-09-09T02:45:36;97446.34;;;15.45;100.00
12759;BME280;20944;47.048;15.390;2022-09-09T02:48:14;97452.94;;;15.36;100.00
12759;BME280;20944;47.048;15.390;2022-09-09T02:50:52;97441.91;;;15.46;100.00
12759;BME280;20944;47.048;15.390;2022-09-09T02:53:24;97459.41;;;15.48;100.00
12759;BME280;20944;47.048;15.390;2022-09-09T02:55:58;97458.16;;;15.55;100.00
12759;BME280;20944;47.048;15.390;2022-09-09T02:58:31;97461.38;;;15.62;100.00
12759;BME280;20944;47.048;15.390;2022-09-09T03:00:59;97468.41;;;15.61;100.00
12759;BME280;20944;47.048;15.390;2022-09-09T03:03:30;97463.38;;;15.57;100.00
12759;BME280;20944;47.048;15.390;2022-09-09T03:05:59;97459.66;;;15.61;100.00
12759;BME280;20944;47.048;15.390;2022-09-09T03:08:27;97467.97;;;15.71;100.00
12759;BME280;20944;47.048;15.390;2022-09-09T03:10:58;97464.34;;;15.73;100.00
12759;BME280;20944;47.048;15.390;2022-09-09T03:13:28;97457.94;;;15.77;100.00
12759;BME280;20944;47.048;15.390;2022-09-09T03:15:57;97448.31;;;15.76;100.00
12759;BME280;20944;47.048;15.390;2022-09-09T03:18:26;97457.56;;;15.85;100.00
12759;BME280;20944;47.048;15.390;2022-09-09T03:20:55;97447.38;;;15.95;100.00
12759;BME280;20944;47.048;15.390;2022-09-09T03:23:25;97446.69;;;15.91;100.00
12759;BME280;20944;47.048;15.390;2022-09-09T03:25:54;97448.72;;;15.86;100.00
12759;BME280;20944;47.048;15.390;2022-09-09T03:28:24;97439.44;;;15.77;100.00
12759;BME280;20944;47.048;15.390;2022-09-09T03:31:00;97441.56;;;15.71;100.00
12759;BME280;20944;47.048;15.390;2022-09-09T03:33:29;97449.94;;;15.61;100.00
12759;BME280;20944;47.048;15.390;2022-09-09T03:35:58;97458.78;;;15.60;100.00
12759;BME280;20944;47.048;15.390;2022-09-09T03:38:26;97452.34;;;15.49;100.00
12759;BME280;20944;47.048;15.390;2022-09-09T03:40:56;97464.03;;;15.62;100.00
12759;BME280;20944;47.048;15.390;2022-09-09T03:43:26;97454.31;;;15.62;100.00
12759;BME280;20944;47.048;15.390;2022-09-09T03:45:54;97455.03;;;15.66;100.00
12759;BME280;20944;47.048;15.390;2022-09-09T03:48:25;97457.03;;;15.78;100.00
12759;BME280;20944;47.048;15.390;2022-09-09T03:50:55;97461.22;;;15.82;100.00
12759;BME280;20944;47.048;15.390;2022-09-09T03:53:24;97460.66;;;15.76;100.00
12759;BME280;20944;47.048;15.390;2022-09-09T03:55:55;97485.63;;;15.70;100.00
12759;BME280;20944;47.048;15.390;2022-09-09T03:58:27;97430.59;;;15.44;100.00
12759;BME280;20944;47.048;15.390;2022-09-09T04:00:56;97468.78;;;15.73;100.00
12759;BME280;20944;47.048;15.390;2022-09-09T04:03:26;97449.94;;;15.61;100.00
12759;BME280;20944;47.048;15.390;2022-09-09T04:05:56;97453.47;;;15.62;100.00
12759;BME280;20944;47.048;15.390;2022-09-09T04:08:26;97471.47;;;15.71;100.00
12759;BME280;20944;47.048;15.390;2022-09-09T04:10:54;97470.47;;;15.74;100.00
12759;BME280;20944;47.048;15.390;2022-09-09T04:13:25;97464.44;;;15.72;100.00
12759;BME280;20944;47.048;15.390;2022-09-09T04:15:55;97451.53;;;15.66;100.00
12759;BME280;20944;47.048;15.390;2022-09-09T04:18:23;97381.09;;;15.13;100.00
12759;BME280;20944;47.048;15.390;2022-09-09T04:20:54;97451.72;;;15.61;100.00
12759;BME280;20944;47.048;15.390;2022-09-09T04:23:24;97455.69;;;15.70;100.00
12759;BME280;20944;47.048;15.390;2022-09-09T04:25:55;97421.19;;;15.38;100.00
12759;BME280;20944;47.048;15.390;2022-09-09T04:28:25;97457.84;;;15.61;100.00
12759;BME280;20944;47.048;15.390;2022-09-09T04:30:54;97459.78;;;15.58;100.00
12759;BME280;20944;47.048;15.390;2022-09-09T04:33:23;97455.38;;;15.41;100.00
12759;BME280;20944;47.048;15.390;2022-09-09T04:35:55;97453.50;;;15.43;100.00
12759;BME280;20944;47.048;15.390;2022-09-09T04:38:24;97430.97;;;15.36;100.00
12759;BME280;20944;47.048;15.390;2022-09-09T04:40:52;97443.94;;;15.23;100.00
12759;BME280;20944;47.048;15.390;2022-09-09T04:43:21;97432.84;;;15.34;100.00
12759;BME280;20944;47.048;15.390;2022-09-09T04:45:53;97439.88;;;15.33;100.00
12759;BME280;20944;47.048;15.390;2022-09-09T04:48:21;97415.59;;;15.09;100.00
12759;BME280;20944;47.048;15.390;2022-09-09T04:50:58;97397.94;;;14.93;100.00
12759;BME280;20944;47.048;15.390;2022-09-09T04:53:28;97443.84;;;15.25;100.00
12759;BME280;20944;47.048;15.390;2022-09-09T04:56:01;97435.63;;;15.31;100.00
12759;BME280;20944;47.048;15.390;2022-09-09T04:58:30;97329.31;;;14.75;100.00
12759;BME280;20944;47.048;15.390;2022-09-09T05:01:06;97430.88;;;15.37;100.00
12759;BME280;20944;47.048;15.390;2022-09-09T05:03:34;97444.88;;;15.57;100.00
12759;BME280;20944;47.048;15.390;2022-09-09T05:06:06;97457.81;;;15.63;100.00
12759;BME280;20944;47.048;15.390;2022-09-09T05:08:36;97451.34;;;15.69;100.00
12759;BME280;20944;47.048;15.390;2022-09-09T05:11:11;97451.59;;;15.64;100.00
12759;BME280;20944;47.048;15.390;2022-09-09T05:13:40;97449.78;;;15.64;100.00
12759;BME280;20944;47.048;15.390;2022-09-09T05:16:08;97440.97;;;15.66;100.00
12759;BME280;20944;47.048;15.390;2022-09-09T05:18:38;97438.84;;;15.72;100.00
12759;BME280;20944;47.048;15.390;2022-09-09T05:21:07;97430.53;;;15.80;100.00
12759;BME280;20944;47.048;15.390;2022-09-09T05:23:36;97440.56;;;15.90;100.00
12759;BME280;20944;47.048;15.390;2022-09-09T05:26:04;97440.34;;;16.11;100.00
12759;BME280;20944;47.048;15.390;2022-09-09T05:28:35;97443.19;;;16.24;100.00
12759;BME280;20944;47.048;15.390;2022-09-09T05:31:05;97447.06;;;16.50;100.00
12759;BME280;20944;47.048;15.390;2022-09-09T05:33:35;97445.00;;;16.72;100.00
12759;BME280;20944;47.048;15.390;2022-09-09T05:36:05;97433.44;;;16.89;100.00
12759;BME280;20944;47.048;15.390;2022-09-09T05:38:36;97443.84;;;17.08;100.00
12759;BME280;20944;47.048;15.390;2022-09-09T05:41:05;97458.03;;;17.22;100.00
12759;BME280;20944;47.048;15.390;2022-09-09T05:43:33;97436.19;;;17.49;100.00
12759;BME280;20944;47.048;15.390;2022-09-09T05:46:03;97446.59;;;17.52;100.00
12759;BME280;20944;47.048;15.390;2022-09-09T05:48:33;97442.56;;;17.61;100.00
12759;BME280;20944;47.048;15.390;2022-09-09T05:51:02;97446.97;;;17.76;100.00
12759;BME280;20944;47.048;15.390;2022-09-09T05:53:31;97444.25;;;17.92;100.00
12759;BME280;20944;47.048;15.390;2022-09-09T05:56:04;97412.16;;;17.96;100.00
12759;BME280;20944;47.048;15.390;2022-09-09T05:58:33;97455.28;;;18.43;100.00
12759;BME280;20944;47.048;15.390;2022-09-09T06:01:04;97449.94;;;18.57;100.00
12759;BME280;20944;47.048;15.390;2022-09-09T06:03:34;97451.84;;;18.55;100.00
12759;BME280;20944;47.048;15.390;2022-09-09T06:06:04;97454.91;;;18.49;100.00
12759;BME280;20944;47.048;15.390;2022-09-09T06:08:33;97444.00;;;18.39;100.00
12759;BME280;20944;47.048;15.390;2022-09-09T06:11:06;97459.25;;;18.36;100.00
12759;BME280;20944;47.048;15.390;2022-09-09T06:13:36;97450.91;;;18.27;100.00
12759;BME280;20944;47.048;15.390;2022-09-09T06:16:06;97419.09;;;17.99;100.00
12759;BME280;20944;47.048;15.390;2022-09-09T06:18:36;97441.91;;;18.16;100.00
12759;BME280;20944;47.048;15.390;2022-09-09T06:21:05;97448.84;;;18.18;100.00
12759;BME280;20944;47.048;15.390;2022-09-09T06:23:34;97455.94;;;18.18;100.00
12759;BME280;20944;47.048;15.390;2022-09-09T06:26:06;97455.34;;;18.27;100.00
12759;BME280;20944;47.048;15.390;2022-09-09T06:28:35;97458.09;;;18.40;100.00
12759;BME280;20944;47.048;15.390;2022-09-09T06:31:06;97448.81;;;18.32;100.00
12759;BME280;20944;47.048;15.390;2022-09-09T06:33:36;97452.06;;;18.23;100.00
12759;BME280;20944;47.048;15.390;2022-09-09T06:36:10;97442.09;;;18.13;100.00
12759;BME280;20944;47.048;15.390;2022-09-09T06:38:39;97464.53;;;18.07;100.00
12759;BME280;20944;47.048;15.390;2022-09-09T06:41:11;97459.97;;;17.95;100.00
12759;BME280;20944;47.048;15.390;2022-09-09T06:43:40;97460.81;;;17.95;100.00
12759;BME280;20944;47.048;15.390;2022-09-09T06:46:11;97465.00;;;17.99;100.00
12759;BME280;20944;47.048;15.390;2022-09-09T06:48:40;97418.06;;;17.71;100.00
12759;BME280;20944;47.048;15.390;2022-09-09T06:51:10;97458.38;;;18.06;100.00
12759;BME280;20944;47.048;15.390;2022-09-09T06:53:40;97399.63;;;17.84;100.00
12759;BME280;20944;47.048;15.390;2022-09-09T06:56:21;97463.03;;;18.17;100.00
12759;BME280;20944;47.048;15.390;2022-09-09T06:58:50;97457.16;;;18.12;100.00
12759;BME280;20944;47.048;15.390;2022-09-09T07:01:20;97442.75;;;18.02;100.00
12759;BME280;20944;47.048;15.390;2022-09-09T07:03:50;97466.63;;;18.16;100.00
12759;BME280;20944;47.048;15.390;2022-09-09T07:06:20;97467.41;;;18.18;100.00
12759;BME280;20944;47.048;15.390;2022-09-09T07:08:49;97479.03;;;18.16;100.00
12759;BME280;20944;47.048;15.390;2022-09-09T07:11:25;97472.69;;;18.18;100.00
12759;BME280;20944;47.048;15.390;2022-09-09T07:13:54;97473.06;;;18.12;100.00
12759;BME280;20944;47.048;15.390;2022-09-09T07:16:24;97385.63;;;17.52;100.00
12759;BME280;20944;47.048;15.390;2022-09-09T07:18:53;97475.81;;;18.11;100.00
12759;BME280;20944;47.048;15.390;2022-09-09T07:21:26;97473.25;;;18.09;100.00
12759;BME280;20944;47.048;15.390;2022-09-09T07:23:54;97468.72;;;18.11;100.00
12759;BME280;20944;47.048;15.390;2022-09-09T07:26:25;97465.03;;;18.14;100.00
12759;BME280;20944;47.048;15.390;2022-09-09T07:28:54;97471.75;;;18.19;100.00
12759;BME280;20944;47.048;15.390;2022-09-09T07:31:25;97466.25;;;18.22;100.00
12759;BME280;20944;47.048;15.390;2022-09-09T07:33:54;97476.69;;;18.25;100.00
12759;BME280;20944;47.048;15.390;2022-09-09T07:36:24;97473.28;;;18.23;100.00
12759;BME280;20944;47.048;15.390;2022-09-09T07:38:59;97426.94;;;18.00;100.00
12759;BME280;20944;47.048;15.390;2022-09-09T07:41:31;97471.00;;;18.31;100.00
12759;BME280;20944;47.048;15.390;2022-09-09T07:44:04;97397.19;;;17.95;100.00
12759;BME280;20944;47.048;15.390;2022-09-09T07:46:34;97491.66;;;18.41;100.00
12759;BME280;20944;47.048;15.390;2022-09-09T07:49:03;97479.22;;;18.41;100.00
12759;BME280;20944;47.048;15.390;2022-09-09T07:51:33;97426.09;;;18.00;100.00
12759;BME280;20944;47.048;15.390;2022-09-09T07:54:03;97454.78;;;18.08;100.00
12759;BME280;20944;47.048;15.390;2022-09-09T07:56:33;97487.88;;;18.30;100.00
12759;BME280;20944;47.048;15.390;2022-09-09T07:59:02;97486.53;;;18.38;100.00
12759;BME280;20944;47.048;15.390;2022-09-09T08:01:34;97495.84;;;18.30;100.00
12759;BME280;20944;47.048;15.390;2022-09-09T08:04:06;97410.19;;;17.70;100.00
12759;BME280;20944;47.048;15.390;2022-09-09T08:06:37;97484.81;;;18.08;100.00
12759;BME280;20944;47.048;15.390;2022-09-09T08:09:06;97496.56;;;18.18;100.00
12759;BME280;20944;47.048;15.390;2022-09-09T08:11:37;97478.66;;;18.22;100.00
12759;BME280;20944;47.048;15.390;2022-09-09T08:14:07;97477.16;;;18.32;100.00
12759;BME280;20944;47.048;15.390;2022-09-09T08:16:37;97488.25;;;18.53;100.00
12759;BME280;20944;47.048;15.390;2022-09-09T08:19:06;97489.28;;;18.65;100.00
12759;BME280;20944;47.048;15.390;2022-09-09T08:21:36;97493.50;;;18.69;100.00
12759;BME280;20944;47.048;15.390;2022-09-09T08:24:08;97490.25;;;18.78;100.00
12759;BME280;20944;47.048;15.390;2022-09-09T08:26:40;97494.41;;;18.82;100.00
12759;BME280;20944;47.048;15.390;2022-09-09T08:29:11;97429.56;;;18.57;100.00
12759;BME280;20944;47.048;15.390;2022-09-09T08:31:42;97517.81;;;19.04;100.00
12759;BME280;20944;47.048;15.390;2022-09-09T08:34:11;97513.16;;;19.07;100.00
12759;BME280;20944;47.048;15.390;2022-09-09T08:36:41;97485.00;;;19.05;100.00
12759;BME280;20944;47.048;15.390;2022-09-09T08:39:11;97514.47;;;19.14;100.00
12759;BME280;20944;47.048;15.390;2022-09-09T08:45:02;97510.50;;;19.07;100.00
12759;BME280;20944;47.048;15.390;2022-09-09T08:47:39;97371.16;;;18.30;100.00
12759;BME280;20944;47.048;15.390;2022-09-09T08:50:22;97511.41;;;19.21;100.00
12759;BME280;20944;47.048;15.390;2022-09-09T08:52:59;97474.59;;;18.88;100.00
12759;BME280;20944;47.048;15.390;2022-09-09T08:55:37;97516.47;;;18.97;100.00
12759;BME280;20944;47.048;15.390;2022-09-09T08:58:12;97388.00;;;18.01;100.00
12759;BME280;20944;47.048;15.390;2022-09-09T09:01:00;97485.41;;;18.56;100.00
12759;BME280;20944;47.048;15.390;2022-09-09T09:03:39;97506.09;;;18.79;100.00
12759;BME280;20944;47.048;15.390;2022-09-09T09:06:26;97514.44;;;18.88;100.00
12759;BME280;20944;47.048;15.390;2022-09-09T09:09:07;97528.81;;;18.98;100.00
12759;BME280;20944;47.048;15.390;2022-09-09T09:11:37;97513.97;;;19.22;100.00
12759;BME280;20944;47.048;15.390;2022-09-09T09:14:11;97511.63;;;19.45;100.00
12759;BME280;20944;47.048;15.390;2022-09-09T09:16:49;97500.56;;;19.65;100.00
12759;BME280;20944;47.048;15.390;2022-09-09T09:19:19;97502.97;;;19.95;100.00
12759;BME280;20944;47.048;15.390;2022-09-09T09:21:54;97498.53;;;20.21;100.00
12759;BME280;20944;47.048;15.390;2022-09-09T09:24:30;97478.53;;;20.28;100.00
12759;BME280;20944;47.048;15.390;2022-09-09T09:27:12;97499.66;;;20.57;100.00
12759;BME280;20944;47.048;15.390;2022-09-09T09:29:43;97467.47;;;20.60;100.00
12759;BME280;20944;47.048;15.390;2022-09-09T09:32:34;97498.50;;;20.97;100.00
12759;BME280;20944;47.048;15.390;2022-09-09T09:35:08;97490.16;;;21.15;100.00
12759;BME280;20944;47.048;15.390;2022-09-09T09:37:40;97443.34;;;20.87;100.00
12759;BME280;20944;47.048;15.390;2022-09-09T09:40:30;97481.59;;;21.22;96.18
12759;BME280;20944;47.048;15.390;2022-09-09T09:43:01;97486.50;;;21.16;96.39
12759;BME280;20944;47.048;15.390;2022-09-09T09:45:42;97485.47;;;21.06;98.49
12759;BME280;20944;47.048;15.390;2022-09-09T09:48:32;97497.28;;;21.14;100.00
12759;BME280;20944;47.048;15.390;2022-09-09T09:51:02;97488.22;;;21.17;98.61
12759;BME280;20944;47.048;15.390;2022-09-09T09:53:36;97488.22;;;21.17;97.90
12759;BME280;20944;47.048;15.390;2022-09-09T09:56:08;97494.56;;;21.40;100.00
12759;BME280;20944;47.048;15.390;2022-09-09T09:58:50;97466.81;;;21.42;99.12
12759;BME280;20944;47.048;15.390;2022-09-09T10:01:23;97463.41;;;21.64;97.55
12759;BME280;20944;47.048;15.390;2022-09-09T10:03:53;97454.34;;;21.78;96.20
12759;BME280;20944;47.048;15.390;2022-09-09T10:06:32;97437.88;;;21.84;67.85
12759;BME280;20944;47.048;15.390;2022-09-09T10:09:03;97419.59;;;21.55;65.63
12759;BME280;20944;47.048;15.390;2022-09-09T10:11:44;97468.97;;;21.96;67.00
12759;BME280;20944;47.048;15.390;2022-09-09T10:14:19;97476.22;;;21.83;64.92
12759;BME280;20944;47.048;15.390;2022-09-09T10:17:00;97453.84;;;21.73;67.03
12759;BME280;20944;47.048;15.390;2022-09-09T10:19:34;97477.56;;;22.00;68.30
12759;BME280;20944;47.048;15.390;2022-09-09T10:22:10;97478.13;;;22.16;69.35
12759;BME280;20944;47.048;15.390;2022-09-09T10:27:38;97461.78;;;22.43;68.43
12759;BME280;20944;47.048;15.390;2022-09-09T10:30:14;97455.47;;;22.55;68.62
12759;BME280;20944;47.048;15.390;2022-09-09T10:32:54;97437.75;;;22.54;66.93
12759;BME280;20944;47.048;15.390;2022-09-09T10:35:29;97433.75;;;22.60;65.48
12759;BME280;20944;47.048;15.390;2022-09-09T10:38:17;97456.34;;;22.90;66.11
12759;BME280;20944;47.048;15.390;2022-09-09T10:44:00;97442.63;;;22.72;63.26
12759;BME280;20944;47.048;15.390;2022-09-09T10:46:40;97422.56;;;22.55;63.44
12759;BME280;20944;47.048;15.390;2022-09-09T10:49:23;97454.28;;;22.59;63.33
12759;BME280;20944;47.048;15.390;2022-09-09T10:52:01;97380.75;;;21.87;63.40
12759;BME280;20944;47.048;15.390;2022-09-09T10:54:42;97461.84;;;22.08;63.57
12759;BME280;20944;47.048;15.390;2022-09-09T10:57:24;97450.50;;;21.93;63.85
12759;BME280;20944;47.048;15.390;2022-09-09T10:59:57;97415.78;;;21.71;64.51
12759;BME280;20944;47.048;15.390;2022-09-09T11:02:28;97427.44;;;21.81;63.75
12759;BME280;20944;47.048;15.390;2022-09-09T11:05:01;97437.16;;;21.82;62.46
12759;BME280;20944;47.048;15.390;2022-09-09T11:07:37;97435.44;;;21.81;62.52
12759;BME280;20944;47.048;15.390;2022-09-09T11:10:19;97425.94;;;21.66;62.96
12759;BME280;20944;47.048;15.390;2022-09-09T11:12:55;97434.13;;;21.75;64.27
12759;BME280;20944;47.048;15.390;2022-09-09T11:15:31;97431.44;;;21.75;64.05
12759;BME280;20944;47.048;15.390;2022-09-09T11:18:04;97422.44;;;21.65;63.46
12759;BME280;20944;47.048;15.390;2022-09-09T11:20:36;97439.53;;;21.74;64.53
12759;BME280;20944;47.048;15.390;2022-09-09T11:23:09;97419.97;;;21.62;64.16
12759;BME280;20944;47.048;15.390;2022-09-09T11:25:42;97391.59;;;21.50;63.98
12759;BME280;20944;47.048;15.390;2022-09-09T11:28:26;97423.31;;;21.77;66.93
12759;BME280;20944;47.048;15.390;2022-09-09T11:31:14;97399.44;;;21.75;65.29
12759;BME280;20944;47.048;15.390;2022-09-09T11:33:58;97415.72;;;21.95;65.81
12759;BME280;20944;47.048;15.390;2022-09-09T11:36:56;97393.63;;;21.93;64.80
12759;BME280;20944;47.048;15.390;2022-09-09T11:42:26;97379.31;;;22.05;61.17
12759;BME280;20944;47.048;15.390;2022-09-09T11:44:54;97388.47;;;22.14;60.73
12759;BME280;20944;47.048;15.390;2022-09-09T11:47:26;97398.56;;;22.21;60.21
12759;BME280;20944;47.048;15.390;2022-09-09T11:50:09;97387.25;;;22.18;60.80
12759;BME280;20944;47.048;15.390;2022-09-09T11:52:42;97394.19;;;22.31;61.32
12759;BME280;20944;47.048;15.390;2022-09-09T11:55:27;97397.69;;;22.43;60.32
12759;BME280;20944;47.048;15.390;2022-09-09T11:57:58;97354.25;;;22.19;59.29
12759;BME280;20944;47.048;15.390;2022-09-09T12:00:35;97368.22;;;22.33;57.77
12759;BME280;20944;47.048;15.390;2022-09-09T12:03:05;97380.22;;;22.50;58.43
12759;BME280;20944;47.048;15.390;2022-09-09T12:05:37;97371.13;;;22.53;57.28
12759;BME280;20944;47.048;15.390;2022-09-09T12:08:09;97295.06;;;22.14;55.30
12759;BME280;20944;47.048;15.390;2022-09-09T12:10:40;97363.59;;;22.47;55.43
12759;BME280;20944;47.048;15.390;2022-09-09T12:13:16;97285.81;;;22.06;56.82
12759;BME280;20944;47.048;15.390;2022-09-09T12:15:48;97358.25;;;22.58;57.12
12759;BME280;20944;47.048;15.390;2022-09-09T12:18:22;97303.16;;;22.23;57.39
12759;BME280;20944;47.048;15.390;2022-09-09T12:20:57;97365.75;;;22.64;57.50
12759;BME280;20944;47.048;15.390;2022-09-09T12:23:36;97277.59;;;22.21;57.83
12759;BME280;20944;47.048;15.390;2022-09-09T12:26:24;97348.19;;;22.50;58.16
12759;BME280;20944;47.048;15.390;2022-09-09T12:29:02;97359.59;;;22.52;59.53
12759;BME280;20944;47.048;15.390;2022-09-09T12:31:38;97264.47;;;21.84;60.64
12759;BME280;20944;47.048;15.390;2022-09-09T12:34:15;97115.09;;;20.83;62.09
12759;BME280;20944;47.048;15.390;2022-09-09T12:36:46;97331.19;;;21.95;61.20
12759;BME280;20944;47.048;15.390;2022-09-09T12:39:27;97333.84;;;21.84;61.33
12759;BME280;20944;47.048;15.390;2022-09-09T12:41:57;97315.66;;;21.89;62.00
12759;BME280;20944;47.048;15.390;2022-09-09T12:44:26;97335.78;;;22.04;61.62
12759;BME280;20944;47.048;15.390;2022-09-09T12:46:57;97262.63;;;21.73;62.32
12759;BME280;20944;47.048;15.390;2022-09-09T12:49:30;97326.84;;;22.17;61.18
12759;BME280;20944;47.048;15.390;2022-09-09T12:52:03;97335.78;;;22.04;61.38
12759;BME280;20944;47.048;15.390;2022-09-09T12:54:35;97342.22;;;22.02;60.84
12759;BME280;20944;47.048;15.390;2022-09-09T12:57:05;97324.13;;;21.83;61.18
12759;BME280;20944;47.048;15.390;2022-09-09T12:59:38;97252.09;;;21.38;61.86
12759;BME280;20944;47.048;15.390;2022-09-09T13:02:18;97215.28;;;21.08;62.38
12759;BME280;20944;47.048;15.390;2022-09-09T13:04:47;97321.94;;;21.77;62.98
12759;BME280;20944;47.048;15.390;2022-09-09T13:07:18;97326.19;;;21.79;63.12
12759;BME280;20944;47.048;15.390;2022-09-09T13:09:48;97322.16;;;21.74;62.83
12759;BME280;20944;47.048;15.390;2022-09-09T13:12:19;97327.75;;;21.71;64.55
12759;BME280;20944;47.048;15.390;2022-09-09T13:14:51;97312.19;;;21.53;63.74
12759;BME280;20944;47.048;15.390;2022-09-09T13:17:21;97295.81;;;21.36;64.63
12759;BME280;20944;47.048;15.390;2022-09-09T13:19:51;97296.91;;;21.55;65.35
12759;BME280;20944;47.048;15.390;2022-09-09T13:22:29;97258.19;;;21.27;66.17
12759;BME280;20944;47.048;15.390;2022-09-09T13:25:04;97291.84;;;21.52;67.11